Time;durP1;ratioP1;P1;durP2;ratioP2;P2;SDS_P1;SDS_P2;PMS_P1;PMS_P2;Temp;Humidity;BMP_temperature;BMP_pressure;BME280_temperature;BME280_humidity;BME280_pressure;Samples;Min_cycle;Max_cycle;Signal;HPM_P1;HPM_P2
2021/10/23 00:01:02;;;;;;;33.57;24.20;;;;;;;;;;5010374;28;20433;-75
2021/10/23 00:03:28;;;;;;;36.93;24.40;;;;;;;;;;5023824;28;20528;-76
2021/10/23 00:05:55;;;;;;;39.47;26.23;;;;;;;;;;5017348;28;21028;-77
2021/10/23 00:08:22;;;;;;;36.73;23.73;;;;;;;;;;5029173;28;20553;-77
2021/10/23 00:10:49;;;;;;;42.30;25.43;;;;;;;;;;5024425;28;20898;-76
2021/10/23 00:13:16;;;;;;;33.70;23.47;;;;;;;;;;5021821;28;20452;-76
2021/10/23 00:15:43;;;;;;;45.67;24.87;;;;;;;;;;5020531;28;20432;-75
2021/10/23 00:18:09;;;;;;;37.90;24.33;;;;;;;;;;5014540;28;20953;-74
2021/10/23 00:20:36;;;;;;;38.63;23.30;;;;;;;;;;5016624;28;20448;-76
2021/10/23 00:23:03;;;;;;;37.33;24.23;;;;;;;;;;5029220;28;20446;-78
2021/10/23 00:25:30;;;;;;;35.17;23.37;;;;;;;;;;5015793;28;20764;-75
2021/10/23 00:27:57;;;;;;;44.47;24.33;;;;;;;;;;5029084;28;20922;-77
2021/10/23 00:30:24;;;;;;;35.93;23.73;;;;;;;;;;5028846;28;20535;-77
2021/10/23 00:32:51;;;;;;;38.57;24.23;;;;;;;;;;5029314;28;20601;-79
2021/10/23 00:35:17;;;;;;;35.10;24.40;;;;;;;;;;5027485;28;20870;-76
2021/10/23 00:37:45;;;;;;;37.00;23.03;;;;;;;;;;5017704;28;20530;-80
2021/10/23 00:40:12;;;;;;;35.60;23.57;;;;;;;;;;5016023;28;20451;-75
2021/10/23 00:42:39;;;;;;;37.33;25.00;;;;;;;;;;5015809;28;20534;-77
2021/10/23 00:45:06;;;;;;;39.50;24.47;;;;;;;;;;5018289;28;20440;-75
2021/10/23 00:47:34;;;;;;;43.17;26.17;;;;;;;;;;5019130;28;20456;-75
2021/10/23 00:50:02;;;;;;;47.27;30.00;;;;;;;;;;5012010;28;20440;-78
2021/10/23 00:52:29;;;;;;;40.07;27.47;;;;;;;;;;5021107;28;20480;-76
2021/10/23 00:54:55;;;;;;;37.97;26.13;;;;;;;;;;5005331;28;20436;-77
2021/10/23 00:57:22;;;;;;;39.27;26.03;;;;;;;;;;5019859;28;20440;-75
2021/10/23 00:59:49;;;;;;;38.43;25.33;;;;;;;;;;5014632;28;20435;-75
2021/10/23 01:02:17;;;;;;;40.07;25.67;;;;;;;;;;5012513;28;20794;-75
2021/10/23 01:04:44;;;;;;;36.10;26.17;;;;;;;;;;5017708;28;20487;-75
2021/10/23 01:07:11;;;;;;;35.63;24.37;;;;;;;;;;5002316;28;20494;-75
2021/10/23 01:09:39;;;;;;;34.60;25.33;;;;;;;;;;5010986;28;20436;-76
2021/10/23 01:12:07;;;;;;;39.90;27.57;;;;;;;;;;5019847;28;20479;-76
2021/10/23 01:14:38;;;;;;;39.33;25.50;;;;;;;;;;5004660;28;20992;-76
2021/10/23 01:17:05;;;;;;;38.00;25.73;;;;;;;;;;5025065;28;20812;-75
2021/10/23 01:19:31;;;;;;;37.13;24.20;;;;;;;;;;5021245;28;20978;-76
2021/10/23 01:21:58;;;;;;;37.80;25.23;;;;;;;;;;5021163;28;20440;-77
2021/10/23 01:24:26;;;;;;;38.40;25.97;;;;;;;;;;5028109;28;20945;-76
2021/10/23 01:26:54;;;;;;;40.00;26.70;;;;;;;;;;5018437;28;20448;-75
2021/10/23 01:29:21;;;;;;;39.50;25.73;;;;;;;;;;5032982;28;20443;-76
2021/10/23 01:31:49;;;;;;;38.80;25.07;;;;;;;;;;5032035;28;20471;-77
2021/10/23 01:34:21;;;;;;;39.30;26.47;;;;;;;;;;5032553;28;20538;-77
2021/10/23 01:36:50;;;;;;;34.60;25.77;;;;;;;;;;5032350;28;20550;-77
2021/10/23 01:39:17;;;;;;;36.43;27.87;;;;;;;;;;5026142;28;20436;-78
2021/10/23 01:41:44;;;;;;;39.27;28.53;;;;;;;;;;5010058;28;20511;-77
2021/10/23 01:44:12;;;;;;;44.00;28.00;;;;;;;;;;5015181;28;20443;-76
2021/10/23 01:46:39;;;;;;;37.90;27.90;;;;;;;;;;5017210;28;20447;-77
2021/10/23 01:49:06;;;;;;;39.07;27.13;;;;;;;;;;5009552;28;20443;-77
2021/10/23 01:51:33;;;;;;;39.20;28.03;;;;;;;;;;5016827;28;20483;-76
2021/10/23 01:54:04;;;;;;;40.20;27.10;;;;;;;;;;5008222;28;20442;-76
2021/10/23 01:56:33;;;;;;;36.03;26.70;;;;;;;;;;5018536;28;20458;-75
2021/10/23 01:59:00;;;;;;;45.27;26.93;;;;;;;;;;5010522;28;20791;-75
2021/10/23 02:01:27;;;;;;;36.70;25.37;;;;;;;;;;5023363;28;20470;-74
2021/10/23 02:03:54;;;;;;;40.47;25.87;;;;;;;;;;5010693;28;20487;-74
2021/10/23 02:06:22;;;;;;;38.23;26.40;;;;;;;;;;5005761;28;20448;-75
2021/10/23 02:08:51;;;;;;;39.00;27.50;;;;;;;;;;5008426;28;20555;-76
2021/10/23 02:11:18;;;;;;;42.30;29.70;;;;;;;;;;5022166;28;20499;-76
2021/10/23 02:13:48;;;;;;;38.87;28.80;;;;;;;;;;5004643;28;20547;-75
2021/10/23 02:16:19;;;;;;;39.83;29.07;;;;;;;;;;5019759;28;20442;-74
2021/10/23 02:18:46;;;;;;;42.23;28.57;;;;;;;;;;5019225;28;20444;-75
2021/10/23 02:21:27;;;;;;;38.47;27.27;;;;;;;;;;5036989;28;20519;-75
2021/10/23 02:23:55;;;;;;;36.93;24.77;;;;;;;;;;5003102;28;20970;-75
2021/10/23 02:26:21;;;;;;;36.93;27.60;;;;;;;;;;5024465;28;20772;-75
2021/10/23 02:28:50;;;;;;;34.80;23.70;;;;;;;;;;5031674;28;20443;-75
2021/10/23 02:31:16;;;;;;;33.77;23.10;;;;;;;;;;5020927;28;21009;-77
2021/10/23 02:33:43;;;;;;;33.00;25.77;;;;;;;;;;5028694;28;20432;-74
2021/10/23 02:36:10;;;;;;;36.30;24.97;;;;;;;;;;5031509;28;20446;-78
2021/10/23 02:38:37;;;;;;;38.13;24.23;;;;;;;;;;5014990;28;20798;-76
2021/10/23 02:41:04;;;;;;;37.47;24.90;;;;;;;;;;5012138;28;20432;-76
2021/10/23 02:43:30;;;;;;;36.20;23.93;;;;;;;;;;5011895;28;20445;-74
2021/10/23 02:45:59;;;;;;;42.33;25.93;;;;;;;;;;5020280;28;20871;-74
2021/10/23 02:48:26;;;;;;;32.90;23.00;;;;;;;;;;5023040;28;20444;-74
2021/10/23 02:50:54;;;;;;;32.53;24.60;;;;;;;;;;5021903;28;20913;-75
2021/10/23 02:53:21;;;;;;;34.23;25.70;;;;;;;;;;5019015;28;20970;-74
2021/10/23 02:55:49;;;;;;;36.40;24.80;;;;;;;;;;5012792;28;20532;-74
2021/10/23 02:58:19;;;;;;;38.20;24.93;;;;;;;;;;5013025;28;20932;-74
2021/10/23 03:00:48;;;;;;;36.70;25.17;;;;;;;;;;5015981;28;20519;-75
2021/10/23 03:03:15;;;;;;;35.00;25.93;;;;;;;;;;5011689;28;20448;-75
2021/10/23 03:05:42;;;;;;;36.53;26.00;;;;;;;;;;5013537;28;20530;-77
2021/10/23 03:08:09;;;;;;;52.93;33.20;;;;;;;;;;5023418;28;20511;-75
2021/10/23 03:10:36;;;;;;;49.23;35.03;;;;;;;;;;5017041;28;20432;-74
2021/10/23 03:13:02;;;;;;;49.37;33.23;;;;;;;;;;5013744;28;20495;-74
2021/10/23 03:15:29;;;;;;;50.50;34.23;;;;;;;;;;5010881;28;20523;-72
2021/10/23 03:17:56;;;;;;;40.87;32.17;;;;;;;;;;5022427;28;20454;-73
2021/10/23 03:20:23;;;;;;;45.97;32.50;;;;;;;;;;5020194;28;20443;-77
2021/10/23 03:22:50;;;;;;;46.77;30.07;;;;;;;;;;5019887;28;20455;-76
2021/10/23 03:25:16;;;;;;;45.77;31.67;;;;;;;;;;5013941;28;20471;-74
2021/10/23 03:27:43;;;;;;;41.00;30.30;;;;;;;;;;5020982;28;20471;-77
2021/10/23 03:30:10;;;;;;;37.77;29.63;;;;;;;;;;5026080;28;20534;-79
2021/10/23 03:32:37;;;;;;;44.37;30.33;;;;;;;;;;5022327;28;20475;-76
2021/10/23 03:35:04;;;;;;;45.70;34.20;;;;;;;;;;5024231;28;20440;-78
2021/10/23 03:37:34;;;;;;;47.07;34.77;;;;;;;;;;5010936;28;20868;-75
2021/10/23 03:40:02;;;;;;;45.60;33.50;;;;;;;;;;5023467;28;20502;-78
2021/10/23 03:42:29;;;;;;;48.33;32.50;;;;;;;;;;5018524;28;20432;-75
2021/10/23 03:44:57;;;;;;;47.63;32.07;;;;;;;;;;5011926;28;21225;-74
2021/10/23 03:47:24;;;;;;;45.10;32.87;;;;;;;;;;5018913;28;20446;-75
2021/10/23 03:49:51;;;;;;;42.70;31.13;;;;;;;;;;5016195;28;20455;-74
2021/10/23 03:52:19;;;;;;;44.23;30.57;;;;;;;;;;5007637;28;20477;-75
2021/10/23 03:54:48;;;;;;;43.50;31.27;;;;;;;;;;5016666;28;20504;-75
2021/10/23 03:57:14;;;;;;;45.30;32.23;;;;;;;;;;5023997;28;20448;-75
2021/10/23 03:59:41;;;;;;;45.43;33.13;;;;;;;;;;5021894;28;20451;-75
2021/10/23 04:02:08;;;;;;;46.57;32.93;;;;;;;;;;5011843;28;20443;-75
2021/10/23 04:04:35;;;;;;;54.00;38.10;;;;;;;;;;5004369;28;20481;-76
2021/10/23 04:07:03;;;;;;;53.27;38.47;;;;;;;;;;5001400;28;20496;-75
2021/10/23 04:09:33;;;;;;;57.57;38.33;;;;;;;;;;5009834;28;20450;-75
2021/10/23 04:12:05;;;;;;;57.80;36.07;;;;;;;;;;5011110;28;20498;-74
2021/10/23 04:14:32;;;;;;;54.30;37.23;;;;;;;;;;5018640;28;20961;-76
2021/10/23 04:16:58;;;;;;;57.53;37.17;;;;;;;;;;5027940;28;20892;-76
2021/10/23 04:19:25;;;;;;;54.73;36.87;;;;;;;;;;5018614;28;20511;-75
2021/10/23 04:21:52;;;;;;;42.27;32.60;;;;;;;;;;5019392;28;20825;-74
2021/10/23 04:24:19;;;;;;;48.23;33.87;;;;;;;;;;5029705;28;20447;-75
2021/10/23 04:26:45;;;;;;;45.00;32.87;;;;;;;;;;5030316;28;20980;-74
2021/10/23 04:29:12;;;;;;;51.87;32.10;;;;;;;;;;5033720;28;20539;-73
2021/10/23 04:31:39;;;;;;;44.27;31.33;;;;;;;;;;5033497;28;21032;-74
2021/10/23 04:34:06;;;;;;;46.03;32.57;;;;;;;;;;5010368;28;20498;-74
2021/10/23 04:36:34;;;;;;;48.03;32.60;;;;;;;;;;5021684;28;20444;-72
2021/10/23 04:39:00;;;;;;;55.20;33.93;;;;;;;;;;5029065;28;20447;-74
2021/10/23 04:41:27;;;;;;;64.57;42.93;;;;;;;;;;5028825;28;20988;-75
2021/10/23 04:43:54;;;;;;;54.67;35.77;;;;;;;;;;5020495;28;20470;-76
2021/10/23 04:46:22;;;;;;;45.93;34.57;;;;;;;;;;5016784;28;20447;-75
2021/10/23 04:48:49;;;;;;;49.10;35.23;;;;;;;;;;5008036;28;20551;-76
2021/10/23 04:51:15;;;;;;;55.83;35.30;;;;;;;;;;5022152;28;20543;-75
2021/10/23 04:53:46;;;;;;;48.07;34.03;;;;;;;;;;5025033;28;21031;-76
2021/10/23 04:56:13;;;;;;;51.03;31.40;;;;;;;;;;5034381;28;20436;-77
2021/10/23 04:58:40;;;;;;;43.97;31.60;;;;;;;;;;5029050;28;20503;-75
2021/10/23 05:01:07;;;;;;;52.33;33.60;;;;;;;;;;5013118;28;20488;-74
2021/10/23 05:03:38;;;;;;;44.40;31.60;;;;;;;;;;5022629;28;20554;-72
2021/10/23 05:06:04;;;;;;;50.30;33.20;;;;;;;;;;5017759;28;20531;-71
2021/10/23 05:08:34;;;;;;;57.77;32.10;;;;;;;;;;5013264;28;20820;-73
2021/10/23 05:11:02;;;;;;;55.33;33.57;;;;;;;;;;5006740;28;20468;-76
2021/10/23 05:13:29;;;;;;;49.90;35.47;;;;;;;;;;5013182;28;20503;-76
2021/10/23 05:15:55;;;;;;;53.50;36.40;;;;;;;;;;5015377;28;20448;-74
2021/10/23 05:18:23;;;;;;;59.00;40.27;;;;;;;;;;5017045;28;20528;-75
2021/10/23 05:20:50;;;;;;;63.17;43.37;;;;;;;;;;5019968;28;20529;-75
2021/10/23 05:23:17;;;;;;;66.37;43.57;;;;;;;;;;5021268;28;20436;-76
2021/10/23 05:25:44;;;;;;;65.47;44.17;;;;;;;;;;5002439;28;20818;-77
2021/10/23 05:28:11;;;;;;;69.60;42.63;;;;;;;;;;5022753;28;20767;-79
2021/10/23 05:30:38;;;;;;;56.50;40.60;;;;;;;;;;5015060;28;20441;-80
2021/10/23 05:33:05;;;;;;;57.83;40.07;;;;;;;;;;5017170;28;20962;-77
2021/10/23 05:35:32;;;;;;;59.30;39.67;;;;;;;;;;5012220;28;20854;-78
2021/10/23 05:37:58;;;;;;;60.73;39.43;;;;;;;;;;5020294;28;20467;-73
2021/10/23 05:40:25;;;;;;;54.57;36.70;;;;;;;;;;5024082;28;20463;-77
2021/10/23 05:42:53;;;;;;;53.43;37.50;;;;;;;;;;5009359;28;20615;-75
2021/10/23 05:45:19;;;;;;;57.27;38.67;;;;;;;;;;5012445;28;20524;-76
2021/10/23 05:47:46;;;;;;;66.10;42.47;;;;;;;;;;5015770;28;20444;-76
2021/10/23 05:50:13;;;;;;;71.47;46.43;;;;;;;;;;5006374;28;20532;-73
2021/10/23 05:52:40;;;;;;;72.50;45.20;;;;;;;;;;5026128;28;20581;-75
2021/10/23 05:55:07;;;;;;;72.77;51.67;;;;;;;;;;5025050;28;20440;-74
2021/10/23 05:57:34;;;;;;;96.00;59.47;;;;;;;;;;5029340;28;20961;-75
2021/10/23 06:00:06;;;;;;;79.93;58.30;;;;;;;;;;5020751;28;20464;-75
2021/10/23 06:02:40;;;;;;;89.00;55.97;;;;;;;;;;5025790;28;20444;-75
2021/10/23 06:05:07;;;;;;;87.57;55.07;;;;;;;;;;5026353;28;20841;-74
2021/10/23 06:07:36;;;;;;;84.33;54.93;;;;;;;;;;5018890;28;20870;-74
2021/10/23 06:10:04;;;;;;;86.73;55.17;;;;;;;;;;5022374;28;20436;-73
2021/10/23 06:12:31;;;;;;;73.73;49.83;;;;;;;;;;5026111;28;21156;-74
2021/10/23 06:14:58;;;;;;;76.80;49.93;;;;;;;;;;5020336;28;20433;-74
2021/10/23 06:17:24;;;;;;;75.83;48.17;;;;;;;;;;5024376;28;20960;-74
2021/10/23 06:19:51;;;;;;;70.20;46.97;;;;;;;;;;5035195;28;20428;-75
2021/10/23 06:22:18;;;;;;;63.03;43.27;;;;;;;;;;5021610;28;20444;-74
2021/10/23 06:24:44;;;;;;;53.83;38.90;;;;;;;;;;5034956;28;20486;-75
2021/10/23 06:27:11;;;;;;;49.03;34.53;;;;;;;;;;5032135;28;20483;-76
2021/10/23 06:29:38;;;;;;;43.00;30.87;;;;;;;;;;5035654;28;20451;-76
2021/10/23 06:32:06;;;;;;;46.60;30.87;;;;;;;;;;5025316;28;20468;-74
2021/10/23 06:34:32;;;;;;;47.07;31.83;;;;;;;;;;5026073;28;20467;-68
2021/10/23 06:36:59;;;;;;;46.80;29.03;;;;;;;;;;5030757;28;20440;-69
2021/10/23 06:39:26;;;;;;;41.97;29.10;;;;;;;;;;5033979;28;20436;-68
2021/10/23 06:41:52;;;;;;;44.30;29.63;;;;;;;;;;5035814;28;20444;-73
2021/10/23 06:44:19;;;;;;;44.50;30.23;;;;;;;;;;5029643;28;20523;-76
2021/10/23 06:46:46;;;;;;;72.53;44.33;;;;;;;;;;5028417;28;20452;-75
2021/10/23 06:49:13;;;;;;;79.57;53.03;;;;;;;;;;5025463;28;20506;-76
2021/10/23 06:51:39;;;;;;;145.00;99.93;;;;;;;;;;5023756;28;20987;-76
2021/10/23 06:54:06;;;;;;;75.50;50.73;;;;;;;;;;5025713;28;20491;-77
2021/10/23 06:56:33;;;;;;;69.93;46.23;;;;;;;;;;5016701;28;20440;-76
2021/10/23 06:59:00;;;;;;;69.17;43.80;;;;;;;;;;5023779;28;20589;-69
2021/10/23 07:01:26;;;;;;;67.80;43.13;;;;;;;;;;5020456;28;20454;-70
2021/10/23 07:03:55;;;;;;;68.57;44.67;;;;;;;;;;5027417;28;20494;-70
2021/10/23 07:06:22;;;;;;;70.07;46.50;;;;;;;;;;5018083;28;20444;-70
2021/10/23 07:08:49;;;;;;;89.33;55.93;;;;;;;;;;5020116;28;20495;-74
2021/10/23 07:11:20;;;;;;;86.17;56.90;;;;;;;;;;5031604;28;20474;-78
2021/10/23 07:13:47;;;;;;;92.87;59.40;;;;;;;;;;5025047;28;20475;-77
2021/10/23 07:16:14;;;;;;;87.87;54.10;;;;;;;;;;5021904;28;20462;-74
2021/10/23 07:18:42;;;;;;;71.57;48.57;;;;;;;;;;5017107;28;20445;-73
2021/10/23 07:21:10;;;;;;;72.40;47.40;;;;;;;;;;5024751;28;21025;-75
2021/10/23 07:23:37;;;;;;;68.90;45.03;;;;;;;;;;5028328;28;20438;-75
2021/10/23 07:26:04;;;;;;;68.03;45.07;;;;;;;;;;5031574;28;20976;-75
2021/10/23 07:28:31;;;;;;;64.37;43.77;;;;;;;;;;5013539;28;20437;-72
2021/10/23 07:30:58;;;;;;;111.90;76.57;;;;;;;;;;5017223;28;20449;-76
2021/10/23 07:33:25;;;;;;;86.77;61.07;;;;;;;;;;5020330;28;20463;-75
2021/10/23 07:35:52;;;;;;;117.17;77.07;;;;;;;;;;5032570;28;20525;-74
2021/10/23 07:38:18;;;;;;;60.83;41.50;;;;;;;;;;5023439;28;20513;-75
2021/10/23 07:40:47;;;;;;;60.97;41.53;;;;;;;;;;5022994;28;20441;-73
2021/10/23 07:43:20;;;;;;;65.43;40.40;;;;;;;;;;5026656;28;20498;-74
2021/10/23 07:45:49;;;;;;;65.07;40.83;;;;;;;;;;5015446;28;20439;-76
2021/10/23 07:48:19;;;;;;;62.77;44.50;;;;;;;;;;5013886;28;21229;-76
2021/10/23 07:50:49;;;;;;;68.30;41.60;;;;;;;;;;5007974;28;20448;-73
2021/10/23 07:53:23;;;;;;;75.50;42.33;;;;;;;;;;5021356;28;20479;-73
2021/10/23 07:55:50;;;;;;;59.50;42.27;;;;;;;;;;5015015;28;20449;-73
2021/10/23 07:58:19;;;;;;;67.23;42.43;;;;;;;;;;5013211;28;20455;-74
2021/10/23 08:01:11;;;;;;;69.47;42.93;;;;;;;;;;5020697;28;20445;-74
2021/10/23 08:03:38;;;;;;;68.03;43.23;;;;;;;;;;5017591;28;21362;-73
2021/10/23 08:06:07;;;;;;;71.03;45.43;;;;;;;;;;5023940;28;20433;-69
2021/10/23 08:08:36;;;;;;;71.17;46.77;;;;;;;;;;5019923;28;20469;-72
2021/10/23 08:11:04;;;;;;;67.40;46.13;;;;;;;;;;5027353;28;20447;-72
2021/10/23 08:13:33;;;;;;;142.60;99.47;;;;;;;;;;5019677;28;20475;-75
2021/10/23 08:18:58;;;;;;;67.07;43.00;;;;;;;;;;5018439;28;20499;-68
2021/10/23 08:21:26;;;;;;;68.57;41.10;;;;;;;;;;5025730;28;20975;-71
2021/10/23 08:23:53;;;;;;;71.97;41.90;;;;;;;;;;5019822;28;20451;-74
2021/10/23 08:26:23;;;;;;;55.87;39.03;;;;;;;;;;5017007;28;20472;-71
2021/10/23 08:28:54;;;;;;;50.87;32.60;;;;;;;;;;5020742;28;20988;-72
2021/10/23 08:31:21;;;;;;;51.17;33.40;;;;;;;;;;5027903;28;20542;-71
2021/10/23 08:33:54;;;;;;;41.80;27.23;;;;;;;;;;5024184;28;20468;-70
2021/10/23 08:36:21;;;;;;;45.43;27.00;;;;;;;;;;5019399;28;20441;-64
2021/10/23 08:38:47;;;;;;;42.70;31.97;;;;;;;;;;5019559;28;20448;-71
2021/10/23 08:41:16;;;;;;;135.03;105.77;;;;;;;;;;5013186;28;20478;-71
2021/10/23 08:43:43;;;;;;;99.63;78.53;;;;;;;;;;5019708;28;20515;-67
2021/10/23 08:46:12;;;;;;;44.20;27.77;;;;;;;;;;5015467;28;20448;-76
2021/10/23 08:48:42;;;;;;;33.73;24.73;;;;;;;;;;5020865;28;20444;-77
2021/10/23 08:51:10;;;;;;;47.23;27.73;;;;;;;;;;5027777;28;21236;-74
2021/10/23 08:53:39;;;;;;;42.30;26.47;;;;;;;;;;5024684;28;20587;-72
2021/10/23 08:56:08;;;;;;;41.47;27.47;;;;;;;;;;5013129;28;21021;-75
2021/10/23 08:58:35;;;;;;;42.83;28.33;;;;;;;;;;5023075;28;20471;-71
2021/10/23 09:01:28;;;;;;;45.20;27.63;;;;;;;;;;5023390;28;20440;-76
2021/10/23 09:03:55;;;;;;;45.90;29.00;;;;;;;;;;5013895;28;20949;-74
2021/10/23 09:06:33;;;;;;;44.57;27.97;;;;;;;;;;5022431;28;20545;-71
2021/10/23 09:09:01;;;;;;;43.87;28.53;;;;;;;;;;5027698;28;20463;-74
2021/10/23 09:11:33;;;;;;;44.10;27.87;;;;;;;;;;5028092;28;20439;-74
2021/10/23 09:14:26;;;;;;;44.47;28.47;;;;;;;;;;5013982;28;21036;-73
2021/10/23 09:17:03;;;;;;;40.60;26.40;;;;;;;;;;5023786;28;20452;-71
2021/10/23 09:19:34;;;;;;;36.70;23.97;;;;;;;;;;5009823;28;20456;-72
2021/10/23 09:22:07;;;;;;;33.63;22.27;;;;;;;;;;5013931;28;20440;-74
2021/10/23 09:24:33;;;;;;;34.07;21.30;;;;;;;;;;5032173;28;20438;-74
2021/10/23 09:27:11;;;;;;;34.10;20.00;;;;;;;;;;5015408;28;20440;-72
2021/10/23 09:29:39;;;;;;;33.97;19.80;;;;;;;;;;5020679;28;20431;-73
2021/10/23 09:32:16;;;;;;;26.40;15.77;;;;;;;;;;5018918;28;20937;-70
2021/10/23 09:34:43;;;;;;;20.00;14.87;;;;;;;;;;5021863;28;20533;-72
2021/10/23 09:37:11;;;;;;;19.37;14.97;;;;;;;;;;5025085;28;20659;-73
2021/10/23 09:39:42;;;;;;;18.70;14.73;;;;;;;;;;5027073;28;20440;-75
2021/10/23 09:42:11;;;;;;;22.67;14.20;;;;;;;;;;5022740;28;20255;-73
2021/10/23 09:44:49;;;;;;;24.97;16.03;;;;;;;;;;5027604;28;20769;-74
2021/10/23 09:47:17;;;;;;;25.17;15.93;;;;;;;;;;5025703;28;20941;-73
2021/10/23 09:50:01;;;;;;;23.80;16.90;;;;;;;;;;5027092;28;20201;-73
2021/10/23 09:52:52;;;;;;;21.47;14.80;;;;;;;;;;5021798;28;20931;-73
2021/10/23 09:55:23;;;;;;;22.97;15.23;;;;;;;;;;5016721;28;20949;-72
2021/10/23 09:58:06;;;;;;;22.80;15.37;;;;;;;;;;5032569;28;20440;-71
2021/10/23 10:00:33;;;;;;;20.97;15.00;;;;;;;;;;5027876;28;20440;-73
2021/10/23 10:03:01;;;;;;;22.17;13.50;;;;;;;;;;5024032;28;20444;-74
2021/10/23 10:05:35;;;;;;;19.27;12.30;;;;;;;;;;5019199;28;20223;-72
2021/10/23 10:08:09;;;;;;;19.30;11.77;;;;;;;;;;5022767;28;20226;-74
2021/10/23 10:11:03;;;;;;;26.30;11.20;;;;;;;;;;5016588;28;20613;-75
2021/10/23 10:13:34;;;;;;;15.47;10.03;;;;;;;;;;5021527;28;20218;-72
2021/10/23 10:16:04;;;;;;;12.80;9.83;;;;;;;;;;5034559;28;20288;-73
2021/10/23 10:18:41;;;;;;;17.57;10.83;;;;;;;;;;5032511;28;20592;-71
2021/10/23 10:21:11;;;;;;;21.47;10.33;;;;;;;;;;5032542;28;20203;-74
2021/10/23 10:23:40;;;;;;;14.50;10.90;;;;;;;;;;5018595;28;20236;-74
2021/10/23 10:26:13;;;;;;;16.50;10.17;;;;;;;;;;5031783;28;20946;-73
2021/10/23 10:29:10;;;;;;;15.27;10.10;;;;;;;;;;5031937;28;20440;-76
2021/10/23 10:31:44;;;;;;;15.70;11.47;;;;;;;;;;5031465;28;20304;-74
2021/10/23 10:34:15;;;;;;;15.17;11.50;;;;;;;;;;5012415;28;20480;-74
2021/10/23 10:37:11;;;;;;;14.57;11.17;;;;;;;;;;5029921;28;20228;-74
2021/10/23 10:40:13;;;;;;;18.67;11.20;;;;;;;;;;5031117;28;20212;-72
2021/10/23 10:42:50;;;;;;;15.37;11.03;;;;;;;;;;5020615;28;20488;-73
2021/10/23 10:45:41;;;;;;;17.83;12.20;;;;;;;;;;5021682;28;20445;-70
2021/10/23 10:48:26;;;;;;;18.17;12.90;;;;;;;;;;5021063;28;20449;-71
2021/10/23 10:50:57;;;;;;;20.07;13.23;;;;;;;;;;5033258;28;20447;-72
2021/10/23 10:53:26;;;;;;;19.83;12.90;;;;;;;;;;5016912;28;20296;-72
2021/10/23 10:55:58;;;;;;;20.97;13.47;;;;;;;;;;5015200;28;20432;-73
2021/10/23 10:58:42;;;;;;;89.70;69.60;;;;;;;;;;5028040;28;20201;-71
2021/10/23 11:01:16;;;;;;;23.77;16.47;;;;;;;;;;5014227;28;20687;-73
2021/10/23 11:03:45;;;;;;;23.27;16.70;;;;;;;;;;5016789;28;20550;-72
2021/10/23 11:06:33;;;;;;;30.03;22.23;;;;;;;;;;5031947;28;20228;-71
2021/10/23 11:09:11;;;;;;;57.97;44.43;;;;;;;;;;5013753;28;20499;-71
2021/10/23 11:11:43;;;;;;;14.33;11.77;;;;;;;;;;5011863;28;20448;-72
2021/10/23 11:14:31;;;;;;;18.57;13.13;;;;;;;;;;5011964;28;20496;-71
2021/10/23 11:16:59;;;;;;;17.50;12.23;;;;;;;;;;5028461;28;20446;-73
2021/10/23 11:19:39;;;;;;;18.27;12.57;;;;;;;;;;5024190;28;20440;-70
2021/10/23 11:22:11;;;;;;;17.00;12.50;;;;;;;;;;5027264;28;20447;-72
2021/10/23 11:24:39;;;;;;;19.07;12.80;;;;;;;;;;5026567;28;20468;-74
2021/10/23 11:27:06;;;;;;;16.43;12.10;;;;;;;;;;5024893;28;20515;-72
2021/10/23 11:29:33;;;;;;;15.90;11.67;;;;;;;;;;5028522;28;20735;-72
2021/10/23 11:32:01;;;;;;;18.37;12.57;;;;;;;;;;5027798;28;21590;-73
2021/10/23 11:34:30;;;;;;;18.93;13.27;;;;;;;;;;5026496;28;20221;-73
2021/10/23 11:37:13;;;;;;;17.40;12.67;;;;;;;;;;5029354;28;20455;-73
2021/10/23 11:39:56;;;;;;;18.13;13.97;;;;;;;;;;5028394;28;20320;-72
2021/10/23 11:42:27;;;;;;;20.33;13.27;;;;;;;;;;5030259;28;20543;-77
2021/10/23 11:45:19;;;;;;;21.43;13.47;;;;;;;;;;5032138;28;20436;-74
2021/10/23 11:48:13;;;;;;;16.17;12.57;;;;;;;;;;5026959;28;20444;-73
2021/10/23 11:50:44;;;;;;;19.87;13.17;;;;;;;;;;5026380;28;20440;-72
2021/10/23 11:53:20;;;;;;;17.17;13.23;;;;;;;;;;5025869;28;20455;-73
2021/10/23 11:56:16;;;;;;;17.07;13.27;;;;;;;;;;5027078;28;20436;-73
2021/10/23 11:59:09;;;;;;;17.87;13.83;;;;;;;;;;5024979;28;20989;-70
2021/10/23 12:01:38;;;;;;;15.70;14.03;;;;;;;;;;5022869;28;20452;-69
2021/10/23 12:04:05;;;;;;;17.73;13.03;;;;;;;;;;5015039;28;20493;-73
2021/10/23 12:06:44;;;;;;;13.97;12.47;;;;;;;;;;5028532;28;20444;-71
2021/10/23 12:09:28;;;;;;;13.97;11.97;;;;;;;;;;5025816;28;20562;-68
2021/10/23 12:12:03;;;;;;;18.90;12.30;;;;;;;;;;5029168;28;20446;-73
2021/10/23 12:14:31;;;;;;;30.57;23.30;;;;;;;;;;5026267;28;20573;-72
2021/10/23 12:17:02;;;;;;;41.43;35.03;;;;;;;;;;5029751;28;20450;-69
2021/10/23 12:19:34;;;;;;;17.80;11.67;;;;;;;;;;5030989;28;20814;-73
2021/10/23 12:22:04;;;;;;;13.80;12.27;;;;;;;;;;5034074;28;20439;-69
2021/10/23 12:24:31;;;;;;;13.43;11.50;;;;;;;;;;5031943;28;20447;-71
2021/10/23 12:27:01;;;;;;;16.10;11.50;;;;;;;;;;5027830;28;20449;-67
2021/10/23 12:29:34;;;;;;;19.83;12.20;;;;;;;;;;5030267;28;20439;-68
2021/10/23 12:32:05;;;;;;;15.37;12.30;;;;;;;;;;5027550;28;20989;-70
2021/10/23 12:34:55;;;;;;;16.80;11.87;;;;;;;;;;5030491;28;20472;-71
2021/10/23 12:37:25;;;;;;;13.87;12.47;;;;;;;;;;5028177;28;21041;-70
2021/10/23 12:40:05;;;;;;;14.60;11.80;;;;;;;;;;5030218;28;20440;-70
2021/10/23 12:42:33;;;;;;;18.77;12.83;;;;;;;;;;5025622;28;20435;-72
2021/10/23 12:44:59;;;;;;;14.60;13.03;;;;;;;;;;5028623;28;20440;-65
2021/10/23 12:47:27;;;;;;;13.67;11.87;;;;;;;;;;5030474;28;20447;-70
2021/10/23 12:49:54;;;;;;;16.57;12.43;;;;;;;;;;5029876;28;20494;-71
2021/10/23 12:52:21;;;;;;;16.27;12.47;;;;;;;;;;5028647;28;20957;-67
2021/10/23 12:54:47;;;;;;;16.60;12.80;;;;;;;;;;5028874;28;20475;-68
2021/10/23 12:57:14;;;;;;;15.20;13.60;;;;;;;;;;5024456;28;21319;-70
2021/10/23 12:59:41;;;;;;;17.93;11.97;;;;;;;;;;5025206;28;20486;-70
2021/10/23 13:02:08;;;;;;;19.50;12.73;;;;;;;;;;5024001;28;20468;-73
2021/10/23 13:04:35;;;;;;;18.30;12.17;;;;;;;;;;5026840;28;20440;-70
2021/10/23 13:07:01;;;;;;;16.60;12.50;;;;;;;;;;5028177;28;20436;-68
2021/10/23 13:09:28;;;;;;;16.27;12.97;;;;;;;;;;5027505;28;20451;-67
2021/10/23 13:11:55;;;;;;;16.50;12.80;;;;;;;;;;5029430;28;20941;-72
2021/10/23 13:14:22;;;;;;;17.03;13.13;;;;;;;;;;5027702;28;20894;-69
2021/10/23 13:16:49;;;;;;;14.40;11.60;;;;;;;;;;5028355;28;20447;-68
2021/10/23 13:19:15;;;;;;;15.63;12.00;;;;;;;;;;5023823;28;21054;-67
2021/10/23 13:21:42;;;;;;;15.23;12.00;;;;;;;;;;5019862;28;20850;-69
2021/10/23 13:24:09;;;;;;;13.27;11.60;;;;;;;;;;5025397;28;20934;-69
2021/10/23 13:26:36;;;;;;;14.07;11.43;;;;;;;;;;5013843;28;20453;-68
2021/10/23 13:29:02;;;;;;;14.27;11.50;;;;;;;;;;5014908;28;20993;-68
2021/10/23 13:31:47;;;;;;;12.10;10.90;;;;;;;;;;5015406;28;20502;-70
2021/10/23 13:34:14;;;;;;;13.43;11.30;;;;;;;;;;5033277;28;20836;-69
2021/10/23 13:36:42;;;;;;;19.13;10.60;;;;;;;;;;5034946;28;20443;-69
2021/10/23 13:39:08;;;;;;;15.80;10.60;;;;;;;;;;5030570;28;20811;-71
2021/10/23 13:41:36;;;;;;;15.60;10.20;;;;;;;;;;5026228;28;20441;-69
2021/10/23 13:44:04;;;;;;;11.43;9.40;;;;;;;;;;5034978;28;20440;-69
2021/10/23 13:46:31;;;;;;;13.47;10.03;;;;;;;;;;5032298;28;20637;-68
2021/10/23 13:48:57;;;;;;;11.07;8.90;;;;;;;;;;5021298;28;20435;-68
2021/10/23 13:51:25;;;;;;;13.67;10.10;;;;;;;;;;5032645;28;21163;-69
2021/10/23 13:53:52;;;;;;;11.60;9.27;;;;;;;;;;5028038;28;20456;-71
2021/10/23 13:56:19;;;;;;;9.93;8.90;;;;;;;;;;5025123;28;20459;-68
2021/10/23 13:58:45;;;;;;;12.17;9.53;;;;;;;;;;5023758;28;20759;-67
2021/10/23 14:01:13;;;;;;;9.97;8.93;;;;;;;;;;5012612;28;20448;-70
2021/10/23 14:03:40;;;;;;;11.07;9.37;;;;;;;;;;5013026;28;20444;-69
2021/10/23 14:06:06;;;;;;;12.83;9.23;;;;;;;;;;5013038;28;20981;-69
2021/10/23 14:08:33;;;;;;;10.73;9.63;;;;;;;;;;5027302;28;20475;-68
2021/10/23 14:11:00;;;;;;;13.33;10.00;;;;;;;;;;5028997;28;20489;-68
2021/10/23 14:13:30;;;;;;;13.83;10.77;;;;;;;;;;5019633;28;20441;-67
2021/10/23 14:15:56;;;;;;;12.90;11.20;;;;;;;;;;5013819;28;20488;-68
2021/10/23 14:18:30;;;;;;;13.47;11.80;;;;;;;;;;5027512;28;20805;-68
2021/10/23 14:20:58;;;;;;;14.43;12.50;;;;;;;;;;5023155;28;20454;-70
2021/10/23 14:23:26;;;;;;;15.27;11.87;;;;;;;;;;5031720;28;20532;-68
2021/10/23 14:25:54;;;;;;;15.37;13.70;;;;;;;;;;5031799;28;20531;-71
2021/10/23 14:28:44;;;;;;;14.97;13.30;;;;;;;;;;5016482;28;20445;-70
2021/10/23 14:31:15;;;;;;;17.67;13.53;;;;;;;;;;5015777;28;20446;-70
2021/10/23 14:36:29;;;;;;;18.63;14.70;;;;;;;;;;5028502;28;20531;-70